Time;durP1;ratioP1;P1;durP2;ratioP2;P2;SDS_P1;SDS_P2;PMS_P1;PMS_P2;Temp;Humidity;BMP_temperature;BMP_pressure;BME280_temperature;BME280_humidity;BME280_pressure;Samples;Min_cycle;Max_cycle;Signal;HPM_P1;HPM_P2
2020/12/05 00:01:54;;;;;;;8.07;5.32;;;4.90;99.90;;;;;;5053770;28;20052;-63
2020/12/05 00:04:21;;;;;;;7.40;5.07;;;5.00;99.90;;;;;;5053763;28;20045;-64
2020/12/05 00:06:47;;;;;;;6.80;5.05;;;5.00;99.90;;;;;;5053614;28;20049;-64
2020/12/05 00:09:17;;;;;;;6.18;5.05;;;5.00;99.90;;;;;;5054147;28;20482;-64
2020/12/05 00:11:44;;;;;;;7.45;5.70;;;4.80;99.90;;;;;;5053888;28;20056;-64
2020/12/05 00:14:11;;;;;;;6.63;5.70;;;4.60;99.90;;;;;;5054137;28;20048;-64
2020/12/05 00:16:37;;;;;;;7.25;5.93;;;4.80;99.90;;;;;;5053821;28;20106;-64
2020/12/05 00:19:04;;;;;;;12.43;6.57;;;4.80;99.90;;;;;;5054224;28;20045;-64
2020/12/05 00:21:30;;;;;;;9.15;7.05;;;4.80;99.90;;;;;;5053792;28;20048;-63
2020/12/05 00:23:57;;;;;;;9.15;6.88;;;4.70;99.90;;;;;;5053588;28;20049;-63
2020/12/05 00:26:24;;;;;;;7.65;5.97;;;4.70;99.90;;;;;;5053431;28;20460;-64
2020/12/05 00:28:51;;;;;;;9.40;6.03;;;4.20;99.90;;;;;;5053885;28;20102;-64
2020/12/05 00:31:20;;;;;;;7.07;5.82;;;4.00;99.90;;;;;;5053669;28;20493;-64
2020/12/05 00:33:47;;;;;;;9.38;7.38;;;4.20;99.90;;;;;;5053457;28;20048;-64
2020/12/05 00:36:17;;;;;;;9.70;7.68;;;4.20;99.90;;;;;;5054038;28;20083;-64
2020/12/05 00:38:44;;;;;;;8.68;6.85;;;4.30;99.90;;;;;;5053817;28;20052;-64
2020/12/05 00:41:11;;;;;;;10.73;7.05;;;4.30;99.90;;;;;;5053379;28;20052;-63
2020/12/05 00:43:38;;;;;;;8.07;6.40;;;4.00;99.90;;;;;;5053633;28;20395;-63
2020/12/05 00:46:05;;;;;;;9.50;7.25;;;4.00;99.90;;;;;;5053001;28;20045;-63
2020/12/05 00:48:32;;;;;;;9.35;6.90;;;4.00;99.90;;;;;;5053122;28;20076;-63
2020/12/05 00:50:59;;;;;;;9.45;7.03;;;4.20;99.90;;;;;;5053768;28;20468;-63
2020/12/05 00:53:25;;;;;;;9.82;7.20;;;4.40;99.90;;;;;;5053527;28;20056;-63
2020/12/05 00:55:52;;;;;;;8.80;6.47;;;4.50;99.90;;;;;;5053059;28;20060;-63
2020/12/05 00:58:19;;;;;;;11.45;7.60;;;4.50;99.90;;;;;;5053015;28;20128;-63
2020/12/05 01:00:47;;;;;;;10.07;7.53;;;4.60;99.90;;;;;;5052956;28;20044;-63
2020/12/05 01:03:14;;;;;;;9.27;7.75;;;4.60;99.90;;;;;;5053153;28;20359;-63
2020/12/05 01:05:40;;;;;;;11.68;8.10;;;4.60;99.90;;;;;;5053132;28;20045;-63
2020/12/05 01:08:08;;;;;;;12.45;7.97;;;4.30;99.90;;;;;;5052867;28;20049;-63
2020/12/05 01:10:37;;;;;;;9.20;6.78;;;4.50;99.90;;;;;;5052933;28;20060;-63
2020/12/05 01:13:04;;;;;;;9.00;6.75;;;4.70;99.90;;;;;;5052759;28;20057;-63
2020/12/05 01:15:31;;;;;;;8.68;7.07;;;4.80;99.90;;;;;;5052442;28;20048;-63
2020/12/05 01:17:59;;;;;;;10.80;7.90;;;4.80;99.90;;;;;;5052671;28;20056;-63
2020/12/05 01:20:26;;;;;;;8.55;7.13;;;4.80;99.90;;;;;;5052805;28;20049;-63
2020/12/05 01:22:53;;;;;;;8.98;6.88;;;4.70;99.90;;;;;;5052547;28;20048;-63
2020/12/05 01:25:19;;;;;;;9.15;6.70;;;4.80;99.90;;;;;;5052773;28;20049;-63
2020/12/05 01:27:46;;;;;;;9.00;6.72;;;4.90;99.90;;;;;;5052525;28;20049;-63
2020/12/05 01:30:13;;;;;;;9.40;7.15;;;4.60;99.90;;;;;;5052382;28;20053;-63
2020/12/05 01:32:39;;;;;;;8.88;7.00;;;4.70;99.90;;;;;;5052895;28;20053;-63
2020/12/05 01:35:08;;;;;;;9.35;6.90;;;4.80;99.90;;;;;;5052504;28;20048;-63
2020/12/05 01:37:34;;;;;;;8.82;6.70;;;5.00;99.90;;;;;;5052517;28;20056;-63
2020/12/05 01:40:01;;;;;;;9.75;7.20;;;5.00;99.90;;;;;;5052451;28;20045;-63
2020/12/05 01:42:28;;;;;;;9.50;7.20;;;5.00;99.90;;;;;;5052482;28;20501;-63
2020/12/05 01:44:55;;;;;;;9.65;7.00;;;4.90;99.90;;;;;;5052738;28;20056;-63
2020/12/05 01:47:27;;;;;;;9.55;6.50;;;4.60;99.90;;;;;;5053887;28;20049;-63
2020/12/05 01:49:53;;;;;;;9.18;7.47;;;4.60;99.90;;;;;;5052699;28;20069;-63
2020/12/05 01:52:22;;;;;;;10.90;7.43;;;4.80;99.90;;;;;;5052527;28;20041;-63
2020/12/05 01:54:50;;;;;;;9.50;6.88;;;5.00;99.90;;;;;;5052408;28;20462;-63
2020/12/05 01:57:20;;;;;;;8.80;7.65;;;5.10;99.90;;;;;;5032195;28;20053;-63
2020/12/05 01:59:47;;;;;;;9.73;7.40;;;5.10;99.90;;;;;;5032924;28;20057;-63
2020/12/05 02:02:14;;;;;;;11.20;7.30;;;5.20;99.90;;;;;;5045208;28;20452;-63
2020/12/05 02:04:51;;;;;;;9.95;7.05;;;5.30;99.90;;;;;;5052496;28;20540;-63
2020/12/05 02:07:29;;;;;;;9.65;7.30;;;5.30;99.90;;;;;;5052378;28;20570;-63
2020/12/05 02:09:58;;;;;;;9.15;6.50;;;5.30;99.90;;;;;;5052565;28;20440;-63
2020/12/05 02:12:30;;;;;;;8.32;7.35;;;5.30;99.90;;;;;;5052261;28;20136;-63
2020/12/05 02:15:04;;;;;;;10.25;7.40;;;5.40;99.90;;;;;;5052504;28;20056;-63
2020/12/05 02:17:34;;;;;;;9.70;7.60;;;5.20;99.90;;;;;;5051749;28;20052;-64
2020/12/05 02:20:03;;;;;;;9.27;7.43;;;5.10;99.90;;;;;;5052041;28;20136;-64
2020/12/05 02:22:45;;;;;;;9.55;7.78;;;5.10;99.90;;;;;;5052276;28;20132;-64
2020/12/05 02:25:14;;;;;;;9.85;8.38;;;5.20;99.90;;;;;;5052317;28;20045;-64
2020/12/05 02:27:42;;;;;;;8.90;7.10;;;5.10;99.90;;;;;;5052114;28;20056;-63
2020/12/05 02:30:10;;;;;;;9.95;7.82;;;4.90;99.90;;;;;;5053164;28;20072;-63
2020/12/05 02:32:37;;;;;;;10.50;7.90;;;5.00;99.90;;;;;;5055295;28;20512;-63
2020/12/05 02:35:05;;;;;;;11.63;9.10;;;5.00;99.90;;;;;;5055939;28;20470;-63
2020/12/05 02:37:35;;;;;;;12.43;9.00;;;5.20;99.90;;;;;;5056014;28;20049;-63
2020/12/05 02:40:03;;;;;;;11.43;8.23;;;5.30;99.90;;;;;;5055916;28;20513;-64
2020/12/05 02:42:30;;;;;;;10.82;7.70;;;5.50;99.90;;;;;;5055699;28;20067;-64
2020/12/05 02:44:59;;;;;;;10.70;8.13;;;5.50;99.90;;;;;;5055463;28;20080;-64
2020/12/05 02:47:26;;;;;;;8.77;7.72;;;5.50;99.90;;;;;;5054622;28;20405;-64
2020/12/05 02:49:52;;;;;;;10.02;8.75;;;5.70;99.90;;;;;;5055761;28;20051;-64
2020/12/05 02:52:19;;;;;;;10.18;8.32;;;5.70;99.90;;;;;;5055808;28;20049;-63
2020/12/05 02:54:46;;;;;;;11.63;9.02;;;5.60;99.90;;;;;;5054174;28;20091;-63
2020/12/05 02:57:12;;;;;;;11.82;8.95;;;5.70;99.90;;;;;;5035859;28;20068;-63
2020/12/05 02:59:42;;;;;;;12.32;9.68;;;5.70;99.90;;;;;;5035664;28;20060;-63
2020/12/05 03:02:09;;;;;;;13.57;9.57;;;5.70;99.90;;;;;;5035471;28;20107;-63
2020/12/05 03:04:35;;;;;;;13.52;9.38;;;5.60;99.90;;;;;;5036008;28;20056;-63
2020/12/05 03:07:05;;;;;;;14.13;9.90;;;5.70;99.90;;;;;;5035296;28;20049;-63
2020/12/05 03:09:32;;;;;;;11.57;10.25;;;5.80;99.90;;;;;;5035819;28;20049;-63
2020/12/05 03:11:59;;;;;;;11.40;9.00;;;5.80;99.90;;;;;;5035158;28;20080;-63
2020/12/05 03:14:25;;;;;;;11.82;9.63;;;5.50;99.90;;;;;;5035889;28;20052;-63
2020/12/05 03:16:52;;;;;;;15.07;11.70;;;5.60;99.90;;;;;;5035059;28;20045;-63
2020/12/05 03:19:20;;;;;;;11.88;9.95;;;5.70;99.90;;;;;;5035179;28;20486;-63
2020/12/05 03:21:47;;;;;;;11.95;10.52;;;5.80;99.90;;;;;;5034930;28;20095;-63
2020/12/05 03:24:14;;;;;;;12.98;10.52;;;5.80;99.90;;;;;;5035131;28;20072;-63
2020/12/05 03:26:44;;;;;;;12.48;10.15;;;5.80;99.90;;;;;;5034966;28;20395;-63
2020/12/05 03:29:10;;;;;;;15.15;10.93;;;5.90;99.90;;;;;;5035005;28;20049;-63
2020/12/05 03:31:47;;;;;;;13.90;11.27;;;5.80;99.90;;;;;;5034795;28;20053;-62
2020/12/05 03:34:15;;;;;;;14.45;11.15;;;5.90;99.90;;;;;;5034663;28;20061;-63
2020/12/05 03:36:42;;;;;;;15.35;11.82;;;6.00;99.90;;;;;;5034790;28;20123;-63
2020/12/05 03:39:09;;;;;;;14.73;11.45;;;6.00;99.90;;;;;;5035722;28;20486;-63
2020/12/05 03:41:36;;;;;;;13.70;11.15;;;6.00;99.90;;;;;;5034871;28;20084;-63
2020/12/05 03:44:03;;;;;;;14.70;11.48;;;6.00;99.90;;;;;;5034891;28;20103;-63
2020/12/05 03:46:30;;;;;;;14.85;11.52;;;5.50;99.90;;;;;;5035146;28;20045;-63
2020/12/05 03:48:57;;;;;;;15.07;10.98;;;5.60;99.90;;;;;;5034789;28;20050;-63
2020/12/05 03:51:25;;;;;;;15.05;12.52;;;5.80;99.90;;;;;;5034283;28;20054;-63
2020/12/05 03:53:51;;;;;;;14.40;10.35;;;5.80;99.90;;;;;;5034431;28;20049;-63
2020/12/05 03:56:18;;;;;;;12.63;9.38;;;5.70;99.90;;;;;;5045931;28;20053;-63
2020/12/05 03:58:45;;;;;;;12.18;9.65;;;5.60;99.90;;;;;;5054410;28;20053;-63
2020/12/05 04:01:12;;;;;;;15.45;10.27;;;5.60;99.90;;;;;;5053917;28;20053;-63
2020/12/05 04:03:39;;;;;;;13.60;10.32;;;5.80;99.90;;;;;;5054630;28;20135;-63
2020/12/05 04:06:06;;;;;;;15.10;11.20;;;5.90;99.90;;;;;;5053966;28;20103;-63
2020/12/05 04:08:33;;;;;;;17.50;11.80;;;6.00;99.90;;;;;;5054429;28;20049;-63
2020/12/05 04:11:00;;;;;;;15.45;11.40;;;6.00;99.90;;;;;;5054023;28;20048;-63
2020/12/05 04:13:26;;;;;;;12.52;10.10;;;5.90;99.90;;;;;;5054018;28;20049;-63
2020/12/05 04:15:57;;;;;;;13.43;10.18;;;5.70;99.90;;;;;;5054017;28;20045;-63
2020/12/05 04:18:24;;;;;;;14.02;9.80;;;5.60;99.90;;;;;;5054236;28;20049;-63
2020/12/05 04:20:51;;;;;;;17.63;12.05;;;5.60;99.90;;;;;;5053678;28;20049;-63
2020/12/05 04:23:17;;;;;;;20.45;12.10;;;5.60;99.90;;;;;;5053632;28;20053;-63
2020/12/05 04:25:45;;;;;;;19.02;12.80;;;5.70;99.90;;;;;;5053819;28;20494;-63
2020/12/05 04:28:12;;;;;;;22.02;12.98;;;5.80;99.90;;;;;;5053950;28;20057;-63
2020/12/05 04:30:38;;;;;;;20.55;13.15;;;5.80;99.90;;;;;;5053451;28;20049;-63
2020/12/05 04:33:05;;;;;;;22.25;13.90;;;6.00;99.90;;;;;;5053747;28;20111;-63
2020/12/05 04:35:32;;;;;;;20.92;13.27;;;5.90;99.90;;;;;;5053187;28;20056;-63
2020/12/05 04:37:58;;;;;;;19.80;12.98;;;5.90;99.90;;;;;;5053401;28;20053;-63
2020/12/05 04:40:25;;;;;;;19.75;13.13;;;6.00;99.90;;;;;;5053703;28;20115;-63
2020/12/05 04:42:52;;;;;;;15.13;12.57;;;6.00;99.90;;;;;;5053727;28;20045;-63
2020/12/05 04:45:19;;;;;;;16.08;11.75;;;5.90;99.90;;;;;;5053507;28;20056;-63
2020/12/05 04:47:46;;;;;;;17.45;12.57;;;6.10;99.90;;;;;;5067785;28;20121;-63
2020/12/05 04:50:13;;;;;;;16.63;12.68;;;6.10;99.90;;;;;;5072397;28;20452;-63
2020/12/05 04:52:50;;;;;;;17.33;12.27;;;6.10;99.90;;;;;;5072648;28;20114;-63
2020/12/05 04:55:21;;;;;;;17.77;12.98;;;6.10;99.90;;;;;;5073033;28;20044;-63
2020/12/05 04:57:56;;;;;;;20.50;13.18;;;6.10;99.90;;;;;;5073290;28;20109;-63
2020/12/05 05:00:23;;;;;;;19.23;13.80;;;6.10;99.90;;;;;;5073138;28;20143;-63
2020/12/05 05:02:53;;;;;;;18.63;13.48;;;6.20;99.90;;;;;;5072850;28;20056;-63
2020/12/05 05:05:23;;;;;;;19.17;13.40;;;6.10;99.90;;;;;;5065343;28;20508;-63
2020/12/05 05:07:51;;;;;;;19.10;13.45;;;6.20;99.90;;;;;;5052824;28;20049;-63
2020/12/05 05:10:21;;;;;;;21.23;14.10;;;6.20;99.90;;;;;;5052738;28;20049;-63
2020/12/05 05:12:48;;;;;;;18.92;14.02;;;6.30;99.90;;;;;;5052889;28;20144;-63
2020/12/05 05:15:29;;;;;;;18.80;14.23;;;6.30;99.90;;;;;;5052595;28;20048;-63
2020/12/05 05:18:00;;;;;;;20.02;14.05;;;6.30;99.90;;;;;;5052815;28;20362;-63
2020/12/05 05:20:28;;;;;;;18.42;12.65;;;6.40;99.90;;;;;;5052863;28;20131;-63
2020/12/05 05:23:09;;;;;;;18.52;13.40;;;6.30;99.90;;;;;;5052622;28;20106;-63
2020/12/05 05:25:57;;;;;;;20.55;14.73;;;6.30;99.90;;;;;;5052584;28;20128;-63
2020/12/05 05:28:29;;;;;;;16.75;12.50;;;6.40;99.90;;;;;;5052824;28;20091;-63
2020/12/05 05:31:10;;;;;;;20.65;14.40;;;6.40;99.90;;;;;;5052548;28;20075;-63
2020/12/05 05:33:42;;;;;;;18.70;13.18;;;6.50;99.90;;;;;;5052974;28;20139;-63
2020/12/05 05:36:17;;;;;;;23.17;14.90;;;6.50;99.90;;;;;;5052593;28;20413;-63
2020/12/05 05:38:44;;;;;;;21.02;13.52;;;6.40;99.90;;;;;;5052484;28;20526;-63
2020/12/05 05:41:17;;;;;;;21.08;15.02;;;6.30;99.90;;;;;;5052455;28;20048;-63
2020/12/05 05:43:54;;;;;;;22.55;14.70;;;6.30;99.90;;;;;;5052867;28;20489;-63
2020/12/05 05:46:27;;;;;;;23.05;14.48;;;6.30;99.90;;;;;;5052108;28;20048;-63
2020/12/05 05:48:55;;;;;;;21.48;13.95;;;6.20;99.90;;;;;;5052045;28;20390;-63
2020/12/05 05:51:39;;;;;;;21.80;13.80;;;6.10;99.90;;;;;;5052200;28;20485;-63
2020/12/05 05:54:12;;;;;;;17.85;12.77;;;6.00;99.90;;;;;;5052386;28;20482;-63
2020/12/05 05:56:39;;;;;;;23.13;13.90;;;6.00;99.90;;;;;;5051945;28;20385;-63
2020/12/05 05:59:06;;;;;;;21.33;13.88;;;6.10;99.90;;;;;;5051081;28;20049;-63
2020/12/05 06:01:38;;;;;;;21.95;14.48;;;6.00;99.90;;;;;;5051402;28;20111;-63
2020/12/05 06:04:09;;;;;;;25.33;15.30;;;6.10;99.90;;;;;;5032209;28;20053;-63
2020/12/05 06:06:37;;;;;;;25.73;15.82;;;6.00;99.90;;;;;;5035691;28;20370;-63
2020/12/05 06:09:04;;;;;;;21.63;14.68;;;5.80;99.90;;;;;;5036399;28;20050;-63
2020/12/05 06:11:34;;;;;;;24.98;15.55;;;5.50;99.90;;;;;;5035981;28;20490;-63
2020/12/05 06:14:02;;;;;;;26.05;15.73;;;5.60;99.90;;;;;;5035926;28;20115;-63
2020/12/05 06:16:28;;;;;;;27.60;16.30;;;5.60;99.90;;;;;;5038918;28;20517;-63
2020/12/05 06:18:57;;;;;;;24.20;15.15;;;5.60;99.90;;;;;;5055714;28;20079;-63
2020/12/05 06:21:33;;;;;;;27.02;15.77;;;5.50;99.90;;;;;;5055976;28;20453;-64
2020/12/05 06:24:05;;;;;;;23.98;15.95;;;5.40;99.90;;;;;;5039602;28;20055;-63
2020/12/05 06:26:35;;;;;;;22.88;13.95;;;5.30;99.90;;;;;;5056031;28;20076;-63
2020/12/05 06:29:02;;;;;;;20.75;13.18;;;5.20;99.90;;;;;;5047620;28;20060;-63
2020/12/05 06:31:42;;;;;;;19.25;12.50;;;5.10;99.90;;;;;;5055716;28;20412;-63
2020/12/05 06:34:10;;;;;;;;;;;5.00;99.90;;;;;;5056518;28;20053;-63
2020/12/05 06:36:41;;;;;;;17.05;11.77;;;4.90;99.90;;;;;;5055386;28;19976;-63
2020/12/05 06:39:18;;;;;;;18.83;11.70;;;4.90;99.90;;;;;;5055658;28;20060;-63
2020/12/05 06:41:48;;;;;;;17.08;11.35;;;4.80;99.90;;;;;;5055508;28;20052;-63
2020/12/05 06:44:15;;;;;;;;;;;4.80;99.90;;;;;;5056342;28;20056;-63
2020/12/05 06:46:53;;;;;;;18.00;12.25;;;4.80;99.90;;;;;;5052908;28;19921;-63
2020/12/05 06:49:56;;;;;;;17.33;11.70;;;4.70;99.90;;;;;;5040979;28;20060;-63
2020/12/05 06:52:40;;;;;;;17.70;11.80;;;4.80;99.90;;;;;;5035589;28;20049;-63
2020/12/05 06:55:28;;;;;;;18.67;12.32;;;4.90;99.90;;;;;;5034907;28;20064;-63
2020/12/05 06:58:02;;;;;;;17.60;11.82;;;4.90;99.90;;;;;;5035409;28;20475;-63
2020/12/05 07:00:32;;;;;;;19.20;12.15;;;5.00;99.90;;;;;;5035323;28;20060;-63
2020/12/05 07:03:01;;;;;;;19.20;12.55;;;4.90;99.90;;;;;;5036520;28;20052;-63
2020/12/05 07:05:36;;;;;;;16.23;10.98;;;5.10;99.90;;;;;;5035092;28;20056;-63
2020/12/05 07:08:38;;;;;;;16.65;11.38;;;4.90;99.90;;;;;;5034715;28;20050;-64
2020/12/05 07:11:07;;;;;;;16.58;11.18;;;4.90;99.90;;;;;;5034809;28;20144;-63
2020/12/05 07:13:43;;;;;;;19.55;11.82;;;5.00;99.90;;;;;;5035934;28;20046;-63
2020/12/05 07:16:17;;;;;;;19.77;13.43;;;5.00;99.90;;;;;;5037695;28;20054;-64
2020/12/05 07:18:46;;;;;;;18.33;12.30;;;5.00;99.90;;;;;;5036245;28;20081;-63
2020/12/05 07:21:14;;;;;;;20.35;12.55;;;5.00;99.90;;;;;;5035151;28;20100;-63
2020/12/05 07:23:41;;;;;;;18.30;12.40;;;5.10;99.90;;;;;;5035143;28;20107;-63
2020/12/05 07:26:08;;;;;;;19.38;12.80;;;5.20;99.90;;;;;;5034797;28;20103;-63
2020/12/05 07:28:35;;;;;;;19.98;13.13;;;5.20;99.90;;;;;;5034879;28;20053;-63
2020/12/05 07:31:03;;;;;;;21.52;14.43;;;5.30;99.90;;;;;;5034694;28;20053;-63
2020/12/05 07:33:30;;;;;;;21.55;14.93;;;5.40;99.90;;;;;;5034712;28;20054;-63
2020/12/05 07:36:03;;;;;;;19.90;13.65;;;5.40;99.90;;;;;;5035155;28;20123;-64
2020/12/05 07:38:32;;;;;;;20.27;12.98;;;5.30;99.90;;;;;;5035035;28;20057;-63
2020/12/05 07:41:00;;;;;;;19.65;14.65;;;5.30;99.90;;;;;;5034537;28;20049;-63
2020/12/05 07:43:26;;;;;;;23.40;14.15;;;5.20;99.90;;;;;;5034759;28;20131;-63
2020/12/05 07:46:01;;;;;;;21.50;13.25;;;5.20;99.90;;;;;;5034517;28;20420;-63
2020/12/05 07:48:28;;;;;;;23.23;14.95;;;5.10;99.90;;;;;;5034616;28;20397;-63
2020/12/05 07:50:55;;;;;;;22.02;14.23;;;5.20;99.90;;;;;;5034254;28;20088;-63
2020/12/05 07:53:33;;;;;;;19.50;13.40;;;5.10;99.90;;;;;;5033925;28;20056;-63
2020/12/05 07:56:14;;;;;;;19.88;12.93;;;5.10;99.90;;;;;;5043288;28;20045;-63
2020/12/05 07:58:49;;;;;;;18.80;13.07;;;5.10;99.90;;;;;;5054077;28;20059;-63
2020/12/05 08:01:37;;;;;;;18.90;12.93;;;5.20;99.90;;;;;;5054620;28;20053;-63
2020/12/05 08:04:36;;;;;;;21.10;13.57;;;5.30;99.90;;;;;;5055692;28;20049;-63
2020/12/05 08:07:04;;;;;;;20.85;14.07;;;5.40;99.90;;;;;;5054108;28;20127;-63
2020/12/05 08:09:35;;;;;;;18.20;12.80;;;5.40;99.90;;;;;;5053802;28;20115;-63
2020/12/05 08:12:05;;;;;;;20.13;13.35;;;5.70;99.90;;;;;;5053844;28;20060;-63
2020/12/05 08:14:34;;;;;;;20.58;14.32;;;5.80;99.90;;;;;;5054789;28;20045;-63
2020/12/05 08:17:02;;;;;;;23.40;14.05;;;5.80;99.90;;;;;;5053683;28;20052;-63
2020/12/05 08:19:29;;;;;;;19.75;13.27;;;5.80;99.90;;;;;;5053693;28;20087;-63
2020/12/05 08:22:00;;;;;;;16.60;12.68;;;5.90;99.90;;;;;;5054553;28;20049;-63
2020/12/05 08:24:28;;;;;;;20.55;14.13;;;5.90;99.90;;;;;;5062251;28;20048;-63
2020/12/05 08:26:56;;;;;;;21.58;14.73;;;6.10;99.90;;;;;;5054178;28;20049;-63
2020/12/05 08:29:23;;;;;;;19.38;13.07;;;6.30;99.90;;;;;;5067830;28;20044;-63
2020/12/05 08:31:50;;;;;;;19.60;13.15;;;6.50;99.90;;;;;;5056892;28;20486;-63
2020/12/05 08:34:29;;;;;;;18.08;12.10;;;6.60;99.90;;;;;;5065812;28;20052;-63
2020/12/05 08:36:57;;;;;;;16.38;11.38;;;6.40;99.90;;;;;;5053112;28;20049;-63
2020/12/05 08:39:26;;;;;;;15.90;11.75;;;6.30;99.90;;;;;;5065235;28;20473;-63
2020/12/05 08:41:53;;;;;;;13.90;10.45;;;7.40;99.90;;;;;;5052863;28;20501;-63
2020/12/05 08:44:22;;;;;;;12.73;9.80;;;9.10;99.90;;;;;;5063679;28;20163;-63
2020/12/05 08:47:00;;;;;;;12.50;9.77;;;10.40;99.90;;;;;;5072358;28;20461;-63
2020/12/05 08:49:27;;;;;;;12.70;10.02;;;11.70;99.90;;;;;;5054809;28;20052;-63
2020/12/05 08:51:58;;;;;;;12.10;9.57;;;12.10;99.90;;;;;;5071716;28;20466;-64
2020/12/05 08:54:24;;;;;;;11.45;10.20;;;12.90;99.90;;;;;;5060284;28;20149;-63
2020/12/05 08:57:06;;;;;;;12.00;9.38;;;13.20;99.90;;;;;;5066782;28;20402;-63
2020/12/05 08:59:34;;;;;;;10.05;8.57;;;14.00;99.90;;;;;;5060640;28;20063;-63
2020/12/05 09:02:00;;;;;;;11.88;9.68;;;14.20;99.90;;;;;;5052184;28;20107;-63
2020/12/05 09:04:28;;;;;;;10.63;8.70;;;14.60;99.70;;;;;;5055493;28;20044;-63
2020/12/05 09:07:07;;;;;;;9.93;8.00;;;14.80;97.10;;;;;;5050584;28;20413;-63
2020/12/05 09:09:34;;;;;;;10.15;9.00;;;13.60;97.00;;;;;;5056854;28;20100;-63
2020/12/05 09:12:06;;;;;;;8.75;7.85;;;14.10;97.20;;;;;;5052507;28;20049;-63
2020/12/05 09:14:34;;;;;;;8.88;7.95;;;14.60;95.70;;;;;;5062758;28;20079;-63
2020/12/05 09:17:03;;;;;;;9.60;8.23;;;14.90;94.60;;;;;;5057997;28;20053;-64
2020/12/05 09:19:32;;;;;;;;;;;15.20;93.30;;;;;;5061461;28;20053;-64
2020/12/05 09:21:59;;;;;;;11.27;7.50;;;15.80;91.70;;;;;;5070354;28;20007;-64
2020/12/05 09:24:26;;;;;;;8.77;7.78;;;16.30;90.20;;;;;;5071365;28;20508;-64
2020/12/05 09:26:54;;;;;;;8.10;7.20;;;16.60;89.10;;;;;;5055582;28;20522;-64
2020/12/05 09:29:21;;;;;;;8.05;6.95;;;16.80;84.40;;;;;;5059226;28;20071;-64
2020/12/05 09:31:51;;;;;;;7.97;7.18;;;16.30;85.20;;;;;;5064816;28;20053;-63
2020/12/05 09:34:30;;;;;;;7.70;6.90;;;15.70;86.90;;;;;;5055920;28;20054;-64
2020/12/05 09:36:57;;;;;;;7.85;7.05;;;16.20;85.90;;;;;;5067338;28;20132;-64
2020/12/05 09:39:26;;;;;;;9.18;7.10;;;16.60;83.00;;;;;;5067734;28;20041;-64
2020/12/05 09:41:56;;;;;;;7.85;6.88;;;16.70;79.90;;;;;;5055955;28;20041;-64
2020/12/05 09:44:23;;;;;;;7.22;6.53;;;16.60;81.00;;;;;;5054851;28;20460;-64
2020/12/05 09:46:51;;;;;;;7.20;6.40;;;16.20;80.50;;;;;;5054200;28;20413;-64
2020/12/05 09:49:17;;;;;;;7.55;6.60;;;15.80;80.60;;;;;;5060156;28;20044;-64
2020/12/05 09:51:44;;;;;;;10.23;6.68;;;14.30;85.30;;;;;;5052191;28;20462;-64
2020/12/05 09:54:11;;;;;;;9.02;7.00;;;13.40;90.40;;;;;;5060896;28;20331;-64
2020/12/05 09:56:37;;;;;;;8.82;5.22;;;12.50;92.20;;;;;;5069767;28;20048;-64
2020/12/05 09:59:04;;;;;;;7.32;6.05;;;11.10;95.20;;;;;;5065393;28;20052;-64
2020/12/05 10:01:31;;;;;;;7.88;6.53;;;10.20;99.40;;;;;;5053473;28;20051;-63
2020/12/05 10:04:01;;;;;;;9.38;6.30;;;9.70;99.90;;;;;;5070265;28;20049;-64
2020/12/05 10:06:27;;;;;;;8.77;6.68;;;9.30;99.90;;;;;;5069440;28;20090;-64
2020/12/05 10:08:54;;;;;;;8.38;7.18;;;9.30;99.90;;;;;;5060510;28;20136;-64
2020/12/05 10:11:21;;;;;;;8.13;6.60;;;9.10;99.90;;;;;;5070548;28;20472;-63
2020/12/05 10:13:48;;;;;;;8.70;7.80;;;9.00;99.90;;;;;;5051802;28;20152;-63
2020/12/05 10:16:14;;;;;;;8.07;7.28;;;10.00;99.90;;;;;;5052010;28;20485;-63
2020/12/05 10:18:43;;;;;;;10.38;8.68;;;11.90;99.90;;;;;;5052107;28;20053;-64
2020/12/05 10:21:11;;;;;;;9.00;8.10;;;13.60;99.90;;;;;;5062143;28;20551;-63
2020/12/05 10:23:37;;;;;;;9.40;8.52;;;14.30;96.60;;;;;;5069920;28;20052;-63
2020/12/05 10:26:04;;;;;;;8.35;7.65;;;14.90;93.80;;;;;;5063358;28;20060;-63
2020/12/05 10:28:30;;;;;;;11.18;10.27;;;16.00;90.70;;;;;;5056196;28;20048;-63
2020/12/05 10:30:59;;;;;;;10.32;9.52;;;16.00;86.20;;;;;;5054254;28;20049;-63
2020/12/05 10:33:26;;;;;;;10.07;9.20;;;15.80;83.60;;;;;;5056356;28;20084;-63
2020/12/05 10:35:55;;;;;;;9.80;9.00;;;16.40;83.60;;;;;;5051556;28;20045;-63
2020/12/05 10:38:23;;;;;;;;;;;17.50;78.00;;;;;;5062402;28;20048;-63
2020/12/05 10:40:52;;;;;;;9.95;9.25;;;17.00;74.90;;;;;;5071783;28;19920;-63
2020/12/05 10:43:18;;;;;;;6.07;5.47;;;16.90;74.40;;;;;;5068097;28;20516;-63
2020/12/05 10:45:45;;;;;;;4.70;3.75;;;16.80;75.20;;;;;;5065804;28;20053;-63
2020/12/05 10:48:12;;;;;;;5.30;3.78;;;14.80;78.30;;;;;;5057392;28;20056;-63
2020/12/05 10:50:38;;;;;;;4.43;3.55;;;13.90;82.30;;;;;;5067374;28;20057;-63
2020/12/05 10:53:05;;;;;;;5.78;4.32;;;12.50;86.80;;;;;;5057880;28;20449;-63
2020/12/05 10:55:33;;;;;;;5.25;4.18;;;11.70;91.10;;;;;;5068133;28;20049;-63
2020/12/05 10:57:59;;;;;;;4.53;3.58;;;11.30;92.30;;;;;;5068786;28;20448;-63
2020/12/05 11:00:26;;;;;;;5.20;2.70;;;10.10;94.70;;;;;;5069640;28;20079;-63
2020/12/05 11:02:53;;;;;;;4.40;3.05;;;9.20;98.00;;;;;;5060604;28;20055;-63
2020/12/05 11:05:19;;;;;;;4.68;3.33;;;9.20;99.90;;;;;;5070690;28;20049;-63
2020/12/05 11:07:46;;;;;;;4.10;3.28;;;9.00;99.90;;;;;;5055238;28;20060;-63
2020/12/05 11:10:13;;;;;;;4.10;3.00;;;8.90;99.90;;;;;;5072370;28;20048;-63
2020/12/05 11:12:41;;;;;;;4.63;3.00;;;8.80;99.90;;;;;;5072585;28;20056;-63
2020/12/05 11:15:07;;;;;;;3.53;2.47;;;8.60;99.90;;;;;;5067029;28;20045;-64
2020/12/05 11:17:34;;;;;;;3.45;2.60;;;8.70;99.90;;;;;;5067768;28;20052;-64
2020/12/05 11:20:03;;;;;;;3.47;2.47;;;8.60;99.90;;;;;;5073766;28;20056;-64
2020/12/05 11:22:29;;;;;;;3.77;2.33;;;8.60;99.90;;;;;;5067588;28;20056;-64
2020/12/05 11:24:56;;;;;;;4.18;2.33;;;8.30;99.90;;;;;;5072466;28;20055;-64
2020/12/05 11:27:23;;;;;;;3.65;2.40;;;8.40;99.90;;;;;;5063955;28;20063;-64
2020/12/05 11:29:58;;;;;;;3.20;2.30;;;8.30;99.90;;;;;;5062174;28;20055;-64
2020/12/05 11:32:25;;;;;;;3.70;2.42;;;8.30;99.90;;;;;;5058405;28;20045;-63
2020/12/05 11:34:51;;;;;;;3.92;2.33;;;8.30;99.90;;;;;;5054136;28;20437;-63
2020/12/05 11:37:18;;;;;;;3.35;2.30;;;8.20;99.90;;;;;;5054149;28;20103;-63
2020/12/05 11:39:44;;;;;;;3.38;2.20;;;8.10;99.90;;;;;;5054167;28;20056;-63
2020/12/05 11:42:12;;;;;;;2.90;1.90;;;8.20;99.90;;;;;;5055848;28;20049;-63
2020/12/05 11:44:39;;;;;;;5.03;2.25;;;8.20;99.90;;;;;;5054245;28;20060;-63
2020/12/05 11:47:06;;;;;;;2.92;2.15;;;8.00;99.90;;;;;;5074189;28;20044;-63
2020/12/05 11:49:33;;;;;;;2.92;2.10;;;8.10;99.90;;;;;;5074689;28;20167;-63
2020/12/05 11:52:01;;;;;;;2.97;2.00;;;8.30;99.90;;;;;;5074397;28;20444;-63
2020/12/05 11:54:28;;;;;;;3.97;1.90;;;8.20;99.90;;;;;;5074305;28;20056;-64
2020/12/05 11:56:55;;;;;;;2.08;1.65;;;8.10;99.90;;;;;;5073731;28;20060;-63
2020/12/05 11:59:22;;;;;;;3.03;2.00;;;8.30;99.90;;;;;;5073975;28;20102;-63
2020/12/05 12:01:51;;;;;;;2.60;1.70;;;8.00;99.90;;;;;;5071838;28;20053;-64
2020/12/05 12:04:19;;;;;;;3.75;2.08;;;8.00;99.90;;;;;;5059454;28;20424;-63
2020/12/05 12:06:45;;;;;;;3.50;2.40;;;8.20;99.90;;;;;;5061433;28;20409;-63
2020/12/05 12:09:12;;;;;;;3.25;2.70;;;8.40;99.90;;;;;;5054308;28;20135;-63
2020/12/05 12:11:38;;;;;;;2.63;2.10;;;8.70;99.90;;;;;;5053818;28;20079;-63
2020/12/05 12:14:05;;;;;;;5.60;5.20;;;8.90;99.90;;;;;;5053571;28;20091;-63
2020/12/05 12:16:34;;;;;;;3.08;2.20;;;9.40;99.90;;;;;;5053465;28;20057;-63
2020/12/05 12:19:01;;;;;;;2.65;2.13;;;9.90;99.90;;;;;;5053657;28;20103;-63
2020/12/05 12:21:31;;;;;;;2.20;1.80;;;10.30;99.90;;;;;;5061890;28;20052;-64
2020/12/05 12:23:58;;;;;;;2.63;2.28;;;10.10;99.90;;;;;;5072098;28;20098;-63
2020/12/05 12:26:29;;;;;;;3.03;1.90;;;9.50;99.90;;;;;;5058656;28;20064;-63
2020/12/05 12:28:55;;;;;;;2.83;1.98;;;9.10;99.90;;;;;;5053696;28;20052;-63
2020/12/05 12:31:22;;;;;;;5.43;5.07;;;9.10;99.90;;;;;;5053439;28;20080;-63
2020/12/05 12:33:49;;;;;;;2.83;2.10;;;9.30;99.90;;;;;;5053351;28;20072;-63
2020/12/05 12:36:17;;;;;;;3.33;2.28;;;9.60;99.90;;;;;;5053369;28;20049;-63
2020/12/05 12:38:45;;;;;;;3.35;2.47;;;9.60;99.90;;;;;;5053571;28;20099;-63
2020/12/05 12:41:14;;;;;;;8.57;8.07;;;10.00;99.90;;;;;;5068068;28;20055;-63
2020/12/05 12:43:41;;;;;;;16.27;15.55;;;10.70;99.90;;;;;;5073373;28;20532;-63
2020/12/05 12:46:07;;;;;;;14.57;13.98;;;11.00;97.70;;;;;;5072986;28;20049;-63
2020/12/05 12:48:38;;;;;;;17.88;17.17;;;11.70;96.80;;;;;;5073127;28;20059;-63
2020/12/05 12:51:05;;;;;;;16.20;15.50;;;12.00;95.30;;;;;;5073498;28;20049;-63
2020/12/05 12:53:31;;;;;;;14.98;14.27;;;13.80;92.10;;;;;;5072874;28;20048;-63
2020/12/05 12:55:59;;;;;;;55.25;53.03;;;13.30;90.50;;;;;;5047218;28;20510;-63